Time;durP1;ratioP1;P1;durP2;ratioP2;P2;SDS_P1;SDS_P2;PMS_P1;PMS_P2;Temp;Humidity;BMP_temperature;BMP_pressure;BME280_temperature;BME280_humidity;BME280_pressure;Samples;Min_cycle;Max_cycle;Signal;HPM_P1;HPM_P2
2022/05/05 00:00:42;;;;;;;;;;;;;;;;;;5035376;28;19916;-68
2022/05/05 00:03:08;;;;;;;;;;;;;;;;;;5041721;28;19917;-67
2022/05/05 00:05:34;;;;;;;;;;;;;;;;;;5037233;28;19928;-67
2022/05/05 00:08:00;;;;;;;;;;;;;;;;;;5040559;28;19916;-67
2022/05/05 00:15:55;;;;;;;;;;;;;;;;;;5039125;28;20472;-69
2022/05/05 00:18:21;;;;;;;;;;;;;;;;;;5043061;28;19920;-69
2022/05/05 00:20:47;;;;;;;;;;;;;;;;;;5016329;28;19986;-70
2022/05/05 00:23:13;;;;;;;;;;;;;;;;;;5045424;28;20339;-67
2022/05/05 00:25:39;;;;;;;;;;;;;;;;;;5018860;28;19920;-67
2022/05/05 00:28:05;;;;;;;;;;;;;;;;;;5041790;28;20447;-70
2022/05/05 00:30:31;;;;;;;;;;;;;;;;;;5023096;28;19917;-69
2022/05/05 00:32:57;;;;;;;;;;;;;;;;;;5036775;28;19963;-69
2022/05/05 00:35:23;;;;;;;;;;;;;;;;;;5022347;28;20011;-68
2022/05/05 00:37:49;;;;;;;;;;;;;;;;;;5039531;28;20012;-68
2022/05/05 00:40:15;;;;;;;;;;;;;;;;;;5018269;28;19917;-68
2022/05/05 00:42:41;;;;;;;;;;;;;;;;;;5037501;28;20361;-69
2022/05/05 00:45:07;;;;;;;;;;;;;;;;;;5020781;28;20298;-68
2022/05/05 00:47:33;;;;;;;;;;;;;;;;;;5033900;28;19928;-68
2022/05/05 00:49:59;;;;;;;;;;;;;;;;;;5021206;28;19916;-68
2022/05/05 00:52:25;;;;;;;;;;;;;;;;;;5023589;28;19921;-68
2022/05/05 00:54:51;;;;;;;;;;;;;;;;;;5031215;28;20291;-68
2022/05/05 00:57:17;;;;;;;;;;;;;;;;;;5037193;28;19986;-69
2022/05/05 00:59:43;;;;;;;;;;;;;;;;;;5033733;28;20327;-68
2022/05/05 01:02:09;;;;;;;;;;;;;;;;;;5021043;28;19916;-69
2022/05/05 01:04:35;;;;;;;;;;;;;;;;;;5035938;28;19921;-67
2022/05/05 01:07:01;;;;;;;;;;;;;;;;;;5042389;28;19931;-68
2022/05/05 01:09:27;;;;;;;;;;;;;;;;;;5026719;28;19916;-68
2022/05/05 01:11:53;;;;;;;;;;;;;;;;;;5039532;28;20392;-68
2022/05/05 01:14:19;;;;;;;;;;;;;;;;;;5044374;28;20324;-68
2022/05/05 01:16:45;;;;;;;;;;;;;;;;;;5027777;28;19940;-68
2022/05/05 01:19:11;;;;;;;;;;;;;;;;;;5024696;28;20448;-69
2022/05/05 01:21:37;;;;;;;;;;;;;;;;;;5035403;28;20302;-67
2022/05/05 01:24:03;;;;;;;;;;;;;;;;;;5020163;28;20034;-68
2022/05/05 01:29:14;;;;;;;;;;;;;;;;;;5042690;28;19923;-68
2022/05/05 01:31:40;;;;;;;;;;;;;;;;;;5018723;28;19938;-68
2022/05/05 01:34:06;;;;;;;;;;;;;;;;;;5019779;28;19917;-68
2022/05/05 01:36:32;;;;;;;;;;;;;;;;;;5030540;28;20579;-68
2022/05/05 01:38:58;;;;;;;;;;;;;;;;;;5034044;28;19916;-69
2022/05/05 01:41:24;;;;;;;;;;;;;;;;;;5035412;28;19917;-68
2022/05/05 01:43:50;;;;;;;;;;;;;;;;;;5029422;28;20525;-68
2022/05/05 01:46:16;;;;;;;;;;;;;;;;;;5014985;28;20700;-68
2022/05/05 01:48:42;;;;;;;;;;;;;;;;;;5034992;28;20342;-68
2022/05/05 01:51:08;;;;;;;;;;;;;;;;;;5036061;28;19916;-68
2022/05/05 01:53:36;;;;;;;;;;;;;;;;;;5032232;28;19916;-68
2022/05/05 01:56:02;;;;;;;;;;;;;;;;;;5033898;28;20002;-68
2022/05/05 01:58:28;;;;;;;;;;;;;;;;;;5037854;28;20358;-68
2022/05/05 02:00:55;;;;;;;;;;;;;;;;;;5030781;28;19921;-68
2022/05/05 02:03:21;;;;;;;;;;;;;;;;;;5038373;28;19912;-68
2022/05/05 02:05:47;;;;;;;;;;;;;;;;;;5031744;28;20352;-68
2022/05/05 02:08:13;;;;;;;;;;;;;;;;;;5036936;28;20362;-68
2022/05/05 02:10:39;;;;;;;;;;;;;;;;;;5012499;28;19917;-68
2022/05/05 02:13:06;;;;;;;;;;;;;;;;;;5031308;28;20458;-68
2022/05/05 02:15:32;;;;;;;;;;;;;;;;;;5036052;28;20033;-68
2022/05/05 02:17:58;;;;;;;;;;;;;;;;;;5035316;28;19920;-68
2022/05/05 02:20:24;;;;;;;;;;;;;;;;;;5039477;28;19924;-70
2022/05/05 02:22:50;;;;;;;;;;;;;;;;;;5035061;28;20425;-68
2022/05/05 02:25:16;;;;;;;;;;;;;;;;;;5038358;28;19931;-67
2022/05/05 02:27:42;;;;;;;;;;;;;;;;;;5031689;28;19924;-69
2022/05/05 02:30:08;;;;;;;;;;;;;;;;;;5038314;28;20243;-68
2022/05/05 02:32:34;;;;;;;;;;;;;;;;;;5013662;28;19923;-69
2022/05/05 02:35:00;;;;;;;;;;;;;;;;;;5015932;28;19912;-69
2022/05/05 02:40:10;;;;;;;;;;;;;;;;;;5032729;28;19923;-68
2022/05/05 02:42:36;;;;;;;;;;;;;;;;;;5031119;28;19917;-68
2022/05/05 02:45:02;;;;;;;;;;;;;;;;;;5033874;28;19924;-68
2022/05/05 02:47:28;;;;;;;;;;;;;;;;;;5018110;28;20014;-68
2022/05/05 02:49:54;;;;;;;;;;;;;;;;;;5013040;28;20475;-67
2022/05/05 02:52:20;;;;;;;;;;;;;;;;;;5035083;28;19940;-68
2022/05/05 02:54:54;;;;;;;;;;;;;;;;;;5012583;28;19983;-69
2022/05/05 02:57:20;;;;;;;;;;;;;;;;;;5021041;28;19917;-69
2022/05/05 02:59:47;;;;;;;;;;;;;;;;;;5035738;28;19932;-70
2022/05/05 03:02:13;;;;;;;;;;;;;;;;;;5023633;28;20389;-69
2022/05/05 03:04:39;;;;;;;;;;;;;;;;;;5040036;28;20063;-69
2022/05/05 03:07:05;;;;;;;;;;;;;;;;;;5043928;28;19924;-69
2022/05/05 03:09:31;;;;;;;;;;;;;;;;;;5035164;28;19921;-69
2022/05/05 03:11:57;;;;;;;;;;;;;;;;;;5039619;28;19917;-69
2022/05/05 03:14:23;;;;;;;;;;;;;;;;;;5043888;28;20376;-69
2022/05/05 03:16:49;;;;;;;;;;;;;;;;;;5023064;28;19921;-69
2022/05/05 03:19:15;;;;;;;;;;;;;;;;;;5021796;28;19952;-69
2022/05/05 03:21:41;;;;;;;;;;;;;;;;;;5038700;28;19916;-69
2022/05/05 03:24:07;;;;;;;;;;;;;;;;;;5041767;28;19916;-69
2022/05/05 03:26:33;;;;;;;;;;;;;;;;;;5041182;28;19991;-69
2022/05/05 03:28:59;;;;;;;;;;;;;;;;;;5041161;28;20011;-69
2022/05/05 03:31:25;;;;;;;;;;;;;;;;;;5040306;28;20262;-69
2022/05/05 03:33:52;;;;;;;;;;;;;;;;;;5037319;28;20260;-67
2022/05/05 03:36:18;;;;;;;;;;;;;;;;;;5034481;28;19920;-69
2022/05/05 03:38:44;;;;;;;;;;;;;;;;;;5017589;28;19962;-69
2022/05/05 03:41:10;;;;;;;;;;;;;;;;;;5037099;28;20035;-69
2022/05/05 03:43:36;;;;;;;;;;;;;;;;;;5032766;28;19931;-69
2022/05/05 03:46:02;;;;;;;;;;;;;;;;;;5039679;28;19921;-69
2022/05/05 03:48:28;;;;;;;;;;;;;;;;;;5019358;28;19928;-69
2022/05/05 03:50:55;;;;;;;;;;;;;;;;;;5036411;28;20020;-69
2022/05/05 03:53:21;;;;;;;;;;;;;;;;;;5038147;28;19923;-67
2022/05/05 03:55:47;;;;;;;;;;;;;;;;;;5033293;28;19920;-68
2022/05/05 03:58:13;;;;;;;;;;;;;;;;;;5018802;28;19916;-67
2022/05/05 04:00:39;;;;;;;;;;;;;;;;;;5036619;28;20389;-67
2022/05/05 04:05:50;;;;;;;;;;;;;;;;;;5037772;28;20043;-70
2022/05/05 04:08:16;;;;;;;;;;;;;;;;;;5043403;28;19921;-68
2022/05/05 04:10:42;;;;;;;;;;;;;;;;;;5022106;28;19916;-68
2022/05/05 04:13:08;;;;;;;;;;;;;;;;;;5043360;28;20511;-67
2022/05/05 04:15:34;;;;;;;;;;;;;;;;;;5037978;28;19923;-67
2022/05/05 04:18:00;;;;;;;;;;;;;;;;;;5024062;28;19920;-68
2022/05/05 04:20:26;;;;;;;;;;;;;;;;;;5032473;28;19924;-68
2022/05/05 04:22:52;;;;;;;;;;;;;;;;;;5038234;28;19940;-67
2022/05/05 04:25:18;;;;;;;;;;;;;;;;;;5024579;28;19924;-68
2022/05/05 04:27:44;;;;;;;;;;;;;;;;;;5037090;28;19916;-68
2022/05/05 04:30:10;;;;;;;;;;;;;;;;;;5022642;28;19916;-68
2022/05/05 04:32:37;;;;;;;;;;;;;;;;;;5038386;28;20014;-69
2022/05/05 04:35:03;;;;;;;;;;;;;;;;;;5037432;28;20240;-67
2022/05/05 04:37:29;;;;;;;;;;;;;;;;;;5046893;28;20316;-67
2022/05/05 04:39:55;;;;;;;;;;;;;;;;;;5027431;28;19916;-68
2022/05/05 04:42:21;;;;;;;;;;;;;;;;;;5045328;28;20255;-68
2022/05/05 04:44:47;;;;;;;;;;;;;;;;;;5041056;28;19916;-68
2022/05/05 04:47:13;;;;;;;;;;;;;;;;;;5043861;28;20351;-68
2022/05/05 04:49:39;;;;;;;;;;;;;;;;;;5018783;28;20205;-70
2022/05/05 04:52:05;;;;;;;;;;;;;;;;;;5043460;28;19917;-67
2022/05/05 04:54:31;;;;;;;;;;;;;;;;;;5016782;28;20353;-67
2022/05/05 04:56:57;;;;;;;;;;;;;;;;;;5020908;28;19916;-67
2022/05/05 04:59:23;;;;;;;;;;;;;;;;;;5042952;28;19947;-67
2022/05/05 05:01:49;;;;;;;;;;;;;;;;;;5015883;28;19974;-67
2022/05/05 05:04:15;;;;;;;;;;;;;;;;;;5042605;28;19916;-68
2022/05/05 05:06:41;;;;;;;;;;;;;;;;;;5014965;28;20446;-68
2022/05/05 05:09:07;;;;;;;;;;;;;;;;;;5016079;28;19972;-67
2022/05/05 05:11:34;;;;;;;;;;;;;;;;;;5017056;28;19942;-67
2022/05/05 05:14:00;;;;;;;;;;;;;;;;;;5018983;28;19917;-67
2022/05/05 05:16:26;;;;;;;;;;;;;;;;;;5017749;28;20199;-69
2022/05/05 05:18:53;;;;;;;;;;;;;;;;;;5016064;28;20035;-69
2022/05/05 05:21:19;;;;;;;;;;;;;;;;;;5021593;28;19923;-69
2022/05/05 05:23:45;;;;;;;;;;;;;;;;;;5013234;28;19916;-67
2022/05/05 05:26:13;;;;;;;;;;;;;;;;;;5022430;28;20263;-67
2022/05/05 05:28:39;;;;;;;;;;;;;;;;;;5013154;28;20011;-67
2022/05/05 05:31:05;;;;;;;;;;;;;;;;;;5019455;28;19923;-67
2022/05/05 05:33:31;;;;;;;;;;;;;;;;;;5018874;28;19944;-68
2022/05/05 05:35:57;;;;;;;;;;;;;;;;;;5011004;28;19924;-67
2022/05/05 05:38:23;;;;;;;;;;;;;;;;;;5019953;28;19917;-68
2022/05/05 05:40:49;;;;;;;;;;;;;;;;;;5015657;28;20473;-68
2022/05/05 05:43:15;;;;;;;;;;;;;;;;;;5017273;28;19925;-68
2022/05/05 05:45:41;;;;;;;;;;;;;;;;;;5007777;28;19929;-68
2022/05/05 05:48:07;;;;;;;;;;;;;;;;;;5019676;28;19929;-69
2022/05/05 05:50:33;;;;;;;;;;;;;;;;;;5015583;28;20020;-68
2022/05/05 05:52:59;;;;;;;;;;;;;;;;;;5013831;28;20221;-69
2022/05/05 05:55:25;;;;;;;;;;;;;;;;;;5013770;28;20359;-68
2022/05/05 05:57:51;;;;;;;;;;;;;;;;;;5015115;28;19917;-68
2022/05/05 06:00:17;;;;;;;;;;;;;;;;;;5020818;28;20360;-68
2022/05/05 06:05:28;;;;;;;;;;;;;;;;;;5016567;28;20563;-69
2022/05/05 06:07:54;;;;;;;;;;;;;;;;;;5015799;28;19979;-69
2022/05/05 06:10:20;;;;;;;;;;;;;;;;;;5029099;28;20102;-68
2022/05/05 06:12:46;;;;;;;;;;;;;;;;;;5007966;28;20717;-67
2022/05/05 06:15:12;;;;;;;;;;;;;;;;;;5026137;28;19967;-69
2022/05/05 06:17:38;;;;;;;;;;;;;;;;;;5022606;28;20351;-67
2022/05/05 06:20:03;;;;;;;;;;;;;;;;;;5019770;28;19921;-68
2022/05/05 06:22:39;;;;;;;;;;;;;;;;;;5038182;28;19921;-67
2022/05/05 06:25:05;;;;;;;;;;;;;;;;;;5016314;28;20322;-67
2022/05/05 06:27:31;;;;;;;;;;;;;;;;;;5019824;28;19993;-67
2022/05/05 06:29:57;;;;;;;;;;;;;;;;;;5030375;28;20370;-68
2022/05/05 06:32:26;;;;;;;;;;;;;;;;;;5022969;28;19982;-67
2022/05/05 06:34:54;;;;;;;;;;;;;;;;;;5032249;28;20501;-67
2022/05/05 06:37:20;;;;;;;;;;;;;;;;;;5015446;28;20763;-68
2022/05/05 06:39:46;;;;;;;;;;;;;;;;;;5035841;28;19932;-69
2022/05/05 06:42:12;;;;;;;;;;;;;;;;;;5033378;28;19917;-68
2022/05/05 06:44:38;;;;;;;;;;;;;;;;;;5037658;28;19916;-69
2022/05/05 06:47:04;;;;;;;;;;;;;;;;;;5038449;28;19982;-68
2022/05/05 06:49:30;;;;;;;;;;;;;;;;;;5020631;28;19920;-67
2022/05/05 06:51:56;;;;;;;;;;;;;;;;;;5035567;28;19929;-69
2022/05/05 06:54:22;;;;;;;;;;;;;;;;;;5035040;28;20324;-67
2022/05/05 06:56:48;;;;;;;;;;;;;;;;;;5031251;28;19921;-68
2022/05/05 06:59:14;;;;;;;;;;;;;;;;;;5036358;28;19935;-68
2022/05/05 07:01:52;;;;;;;;;;;;;;;;;;5025654;28;19913;-68
2022/05/05 07:07:02;;;;;;;;;;;;;;;;;;4993862;28;20523;-68
2022/05/05 07:12:13;;;;;;;;;;;;;;;;;;4997624;28;19951;-70
2022/05/05 07:14:39;;;;;;;;;;;;;;;;;;4995074;28;20423;-69
2022/05/05 07:17:05;;;;;;;;;;;;;;;;;;4988769;28;19965;-68
2022/05/05 07:19:31;;;;;;;;;;;;;;;;;;4982823;28;20568;-70
2022/05/05 07:21:57;;;;;;;;;;;;;;;;;;4982004;28;19917;-68
2022/05/05 07:24:23;;;;;;;;;;;;;;;;;;4984141;28;20241;-68
2022/05/05 07:26:49;;;;;;;;;;;;;;;;;;4984711;28;20652;-68
2022/05/05 07:29:16;;;;;;;;;;;;;;;;;;4991392;28;19971;-68
2022/05/05 07:31:42;;;;;;;;;;;;;;;;;;4989316;28;19917;-68
2022/05/05 07:34:08;;;;;;;;;;;;;;;;;;4995960;28;19918;-68
2022/05/05 07:36:34;;;;;;;;;;;;;;;;;;4994016;28;19914;-68
2022/05/05 07:39:00;;;;;;;;;;;;;;;;;;5006200;28;20386;-68
2022/05/05 07:41:26;;;;;;;;;;;;;;;;;;5002786;28;19917;-69
2022/05/05 07:43:52;;;;;;;;;;;;;;;;;;4999883;28;20349;-68
2022/05/05 07:46:18;;;;;;;;;;;;;;;;;;5005653;28;19963;-69
2022/05/05 07:48:44;;;;;;;;;;;;;;;;;;4998169;28;19976;-68
2022/05/05 07:51:10;;;;;;;;;;;;;;;;;;5003166;28;19913;-68
2022/05/05 07:53:36;;;;;;;;;;;;;;;;;;4998119;28;19917;-68
2022/05/05 07:56:02;;;;;;;;;;;;;;;;;;4996409;28;19917;-68
2022/05/05 07:58:28;;;;;;;;;;;;;;;;;;4997690;28;19917;-68
2022/05/05 08:00:54;;;;;;;;;;;;;;;;;;4995597;28;20772;-69
2022/05/05 08:03:20;;;;;;;;;;;;;;;;;;5002688;28;19917;-69
2022/05/05 08:05:46;;;;;;;;;;;;;;;;;;5015714;28;19939;-69
2022/05/05 08:08:12;;;;;;;;;;;;;;;;;;5043201;28;19920;-68
2022/05/05 08:10:38;;;;;;;;;;;;;;;;;;5036022;28;20019;-69
2022/05/05 08:13:04;;;;;;;;;;;;;;;;;;5042147;28;20014;-69
2022/05/05 08:15:30;;;;;;;;;;;;;;;;;;5041709;28;19920;-69
2022/05/05 08:17:56;;;;;;;;;;;;;;;;;;5032656;28;20067;-70
2022/05/05 08:20:22;;;;;;;;;;;;;;;;;;5038825;28;19963;-68
2022/05/05 08:22:48;;;;;;;;;;;;;;;;;;5037191;28;19917;-69
2022/05/05 08:30:43;;;;;;;;;;;;;;;;;;5035583;28;20027;-68
2022/05/05 08:33:09;;;;;;;;;;;;;;;;;;5013990;28;20660;-70
2022/05/05 08:35:35;;;;;;;;;;;;;;;;;;5036316;28;20355;-68
2022/05/05 08:38:01;;;;;;;;;;;;;;;;;;5044470;28;20391;-68
2022/05/05 08:40:27;;;;;;;;;;;;;;;;;;5041331;28;19916;-69
2022/05/05 08:42:53;;;;;;;;;;;;;;;;;;5038105;28;20980;-69
2022/05/05 08:45:19;;;;;;;;;;;;;;;;;;5038610;28;19920;-69
2022/05/05 08:47:45;;;;;;;;;;;;;;;;;;5011005;28;20460;-69
2022/05/05 08:50:11;;;;;;;;;;;;;;;;;;5032941;28;20417;-69
2022/05/05 08:52:38;;;;;;;;;;;;;;;;;;5016928;28;19916;-69
2022/05/05 08:55:04;;;;;;;;;;;;;;;;;;5018896;28;19916;-69
2022/05/05 08:57:30;;;;;;;;;;;;;;;;;;5039419;28;19920;-69
2022/05/05 08:59:56;;;;;;;;;;;;;;;;;;5032676;28;19923;-68
2022/05/05 09:02:22;;;;;;;;;;;;;;;;;;5036263;28;19923;-68
2022/05/05 09:04:48;;;;;;;;;;;;;;;;;;5034084;28;19921;-69
2022/05/05 09:07:14;;;;;;;;;;;;;;;;;;5036207;28;20259;-69
2022/05/05 09:09:40;;;;;;;;;;;;;;;;;;5033438;28;19917;-68
2022/05/05 09:12:06;;;;;;;;;;;;;;;;;;5037110;28;20441;-68
2022/05/05 09:14:32;;;;;;;;;;;;;;;;;;5045030;28;19974;-70
2022/05/05 09:16:58;;;;;;;;;;;;;;;;;;5035527;28;19928;-70
2022/05/05 09:19:24;;;;;;;;;;;;;;;;;;5042183;28;19922;-70
2022/05/05 09:21:50;;;;;;;;;;;;;;;;;;5030693;28;20412;-70
2022/05/05 09:24:34;;;;;;;;;;;;;;;;;;5043557;28;19921;-69
2022/05/05 09:27:00;;;;;;;;;;;;;;;;;;5036686;28;19920;-69
2022/05/05 09:29:26;;;;;;;;;;;;;;;;;;5039847;28;19924;-69
2022/05/05 09:31:52;;;;;;;;;;;;;;;;;;5036018;28;19917;-69
2022/05/05 09:34:18;;;;;;;;;;;;;;;;;;5044976;28;19916;-69
2022/05/05 09:36:44;;;;;;;;;;;;;;;;;;5031026;28;19917;-70
2022/05/05 09:39:12;;;;;;;;;;;;;;;;;;5040374;28;20534;-70
2022/05/05 09:41:38;;;;;;;;;;;;;;;;;;5015738;28;20018;-69
2022/05/05 09:44:03;;;;;;;;;;;;;;;;;;5035079;28;19920;-69
2022/05/05 09:46:30;;;;;;;;;;;;;;;;;;5041704;28;19931;-69
2022/05/05 09:48:56;;;;;;;;;;;;;;;;;;5019430;28;19955;-69
2022/05/05 09:51:22;;;;;;;;;;;;;;;;;;5019258;28;20358;-69
2022/05/05 09:59:20;;;;;;;;;;;;;;;;;;5033924;28;20004;-70
2022/05/05 10:01:50;;;;;;;;;;;;;;;;;;5017571;28;19975;-70
2022/05/05 10:04:16;;;;;;;;;;;;;;;;;;5046634;28;19920;-70
2022/05/05 10:06:44;;;;;;;;;;;;;;;;;;5039990;28;20197;-70
2022/05/05 10:09:10;;;;;;;;;;;;;;;;;;5027919;28;19923;-70
2022/05/05 10:11:36;;;;;;;;;;;;;;;;;;5036860;28;19994;-70
2022/05/05 10:14:02;;;;;;;;;;;;;;;;;;5040647;28;20008;-70
2022/05/05 10:16:31;;;;;;;;;;;;;;;;;;5038411;28;20136;-70
2022/05/05 10:18:57;;;;;;;;;;;;;;;;;;5040379;28;20015;-70
2022/05/05 10:21:23;;;;;;;;;;;;;;;;;;5037357;28;19959;-69
2022/05/05 10:23:49;;;;;;;;;;;;;;;;;;5010126;28;19920;-68
2022/05/05 10:26:15;;;;;;;;;;;;;;;;;;5018581;28;19976;-68
2022/05/05 10:28:41;;;;;;;;;;;;;;;;;;5038755;28;20036;-68
2022/05/05 10:31:07;;;;;;;;;;;;;;;;;;5026869;28;19995;-68
2022/05/05 10:33:33;;;;;;;;;;;;;;;;;;5034933;28;19958;-68
2022/05/05 10:35:59;;;;;;;;;;;;;;;;;;5033146;28;19912;-68
2022/05/05 10:38:25;;;;;;;;;;;;;;;;;;5014675;28;19928;-69
2022/05/05 10:40:51;;;;;;;;;;;;;;;;;;5033611;28;20389;-68
2022/05/05 10:43:17;;;;;;;;;;;;;;;;;;5033209;28;20000;-68
2022/05/05 10:45:43;;;;;;;;;;;;;;;;;;5029903;28;20353;-68
2022/05/05 10:48:10;;;;;;;;;;;;;;;;;;5015067;28;19970;-70
2022/05/05 10:50:39;;;;;;;;;;;;;;;;;;5030284;28;19951;-69
2022/05/05 10:53:04;;;;;;;;;;;;;;;;;;5035009;28;20303;-69
2022/05/05 10:55:30;;;;;;;;;;;;;;;;;;5032214;28;20341;-69
2022/05/05 10:57:56;;;;;;;;;;;;;;;;;;5029978;28;19920;-69
2022/05/05 11:00:23;;;;;;;;;;;;;;;;;;5040469;28;19923;-69
2022/05/05 11:02:49;;;;;;;;;;;;;;;;;;5033559;28;19956;-70
2022/05/05 11:05:16;;;;;;;;;;;;;;;;;;5017813;28;19921;-70
2022/05/05 11:07:43;;;;;;;;;;;;;;;;;;5033580;28;19925;-69
2022/05/05 11:10:09;;;;;;;;;;;;;;;;;;5019778;28;20030;-70
2022/05/05 11:12:35;;;;;;;;;;;;;;;;;;5014032;28;19924;-68
2022/05/05 11:23:23;;;;;;;;;;;;;;;;;;5035261;28;20416;-68
2022/05/05 11:25:49;;;;;;;;;;;;;;;;;;5013783;28;20320;-68
2022/05/05 11:28:15;;;;;;;;;;;;;;;;;;5015157;28;19923;-68
2022/05/05 11:30:41;;;;;;;;;;;;;;;;;;5027579;28;19930;-69
2022/05/05 11:33:07;;;;;;;;;;;;;;;;;;5033122;28;20722;-69
2022/05/05 11:35:33;;;;;;;;;;;;;;;;;;5033061;28;19917;-68
2022/05/05 11:38:00;;;;;;;;;;;;;;;;;;5026276;28;19925;-69
2022/05/05 11:40:26;;;;;;;;;;;;;;;;;;5013792;28;19921;-67
2022/05/05 11:45:37;;;;;;;;;;;;;;;;;;5030601;28;19924;-71
2022/05/05 11:48:03;;;;;;;;;;;;;;;;;;5017223;28;20389;-70
2022/05/05 11:50:29;;;;;;;;;;;;;;;;;;5028509;28;20122;-69
2022/05/05 11:52:55;;;;;;;;;;;;;;;;;;5012392;28;20207;-67
2022/05/05 11:55:21;;;;;;;;;;;;;;;;;;5013161;28;20426;-68
2022/05/05 11:57:50;;;;;;;;;;;;;;;;;;5015110;28;19955;-67
2022/05/05 12:03:20;;;;;;;;;;;;;;;;;;4989840;28;19918;-67
2022/05/05 12:05:52;;;;;;;;;;;;;;;;;;4971016;28;20203;-67
2022/05/05 12:08:19;;;;;;;;;;;;;;;;;;4972749;28;19976;-68
2022/05/05 12:10:45;;;;;;;;;;;;;;;;;;4992553;28;19918;-69
2022/05/05 12:13:11;;;;;;;;;;;;;;;;;;4982557;28;20017;-69
2022/05/05 12:15:37;;;;;;;;;;;;;;;;;;4993866;28;20375;-69
2022/05/05 12:18:03;;;;;;;;;;;;;;;;;;4994436;28;20008;-67
2022/05/05 12:20:29;;;;;;;;;;;;;;;;;;4975824;28;19918;-67
2022/05/05 12:22:55;;;;;;;;;;;;;;;;;;4992111;28;20033;-67
2022/05/05 12:25:21;;;;;;;;;;;;;;;;;;4992286;28;19924;-69
2022/05/05 12:27:47;;;;;;;;;;;;;;;;;;4978342;28;19960;-68
2022/05/05 12:30:13;;;;;;;;;;;;;;;;;;4976363;28;20360;-69
2022/05/05 12:32:40;;;;;;;;;;;;;;;;;;4979045;28;20068;-67
2022/05/05 12:35:08;;;;;;;;;;;;;;;;;;5010293;28;20029;-68
2022/05/05 12:37:35;;;;;;;;;;;;;;;;;;5022000;28;19967;-68
2022/05/05 12:40:04;;;;;;;;;;;;;;;;;;5026378;28;19994;-68
2022/05/05 12:42:30;;;;;;;;;;;;;;;;;;5015098;28;20407;-69
2022/05/05 12:44:56;;;;;;;;;;;;;;;;;;5013401;28;19917;-69
2022/05/05 12:47:23;;;;;;;;;;;;;;;;;;5011493;28;19925;-69
2022/05/05 12:49:49;;;;;;;;;;;;;;;;;;5013134;28;20028;-68
2022/05/05 13:00:29;;;;;;;;;;;;;;;;;;5015332;28;20509;-68
2022/05/05 13:02:58;;;;;;;;;;;;;;;;;;5009018;28;19968;-69
2022/05/05 13:05:24;;;;;;;;;;;;;;;;;;5013346;28;20200;-69
2022/05/05 13:07:50;;;;;;;;;;;;;;;;;;5016701;28;19929;-69
2022/05/05 13:10:16;;;;;;;;;;;;;;;;;;5020658;28;19998;-69
2022/05/05 13:12:42;;;;;;;;;;;;;;;;;;5010933;28;19917;-70
2022/05/05 13:15:08;;;;;;;;;;;;;;;;;;5009736;28;19917;-70
2022/05/05 13:17:34;;;;;;;;;;;;;;;;;;5010359;28;20335;-69
2022/05/05 13:20:00;;;;;;;;;;;;;;;;;;5010380;28;19921;-69
2022/05/05 13:22:26;;;;;;;;;;;;;;;;;;5009540;28;19917;-69
2022/05/05 13:24:52;;;;;;;;;;;;;;;;;;5009248;28;20032;-69
2022/05/05 13:27:18;;;;;;;;;;;;;;;;;;5007703;28;19921;-68
2022/05/05 13:29:45;;;;;;;;;;;;;;;;;;5005829;28;20367;-69
2022/05/05 13:32:11;;;;;;;;;;;;;;;;;;5011135;28;20262;-69
2022/05/05 13:34:37;;;;;;;;;;;;;;;;;;5008829;28;20000;-69
2022/05/05 13:37:04;;;;;;;;;;;;;;;;;;5018691;28;20456;-70
2022/05/05 13:39:30;;;;;;;;;;;;;;;;;;5011168;28;19917;-70
2022/05/05 13:41:56;;;;;;;;;;;;;;;;;;5009350;28;19986;-68
2022/05/05 13:44:22;;;;;;;;;;;;;;;;;;5008768;28;19927;-68
2022/05/05 13:46:48;;;;;;;;;;;;;;;;;;5013338;28;19937;-70
2022/05/05 13:49:14;;;;;;;;;;;;;;;;;;5009457;28;20244;-68
2022/05/05 13:51:40;;;;;;;;;;;;;;;;;;5009066;28;20412;-68
2022/05/05 13:54:06;;;;;;;;;;;;;;;;;;5010834;28;20547;-69
2022/05/05 13:56:32;;;;;;;;;;;;;;;;;;5004906;28;21637;-69
2022/05/05 13:58:58;;;;;;;;;;;;;;;;;;5005488;28;19924;-68
2022/05/05 14:01:24;;;;;;;;;;;;;;;;;;5009360;28;20122;-68
2022/05/05 14:03:50;;;;;;;;;;;;;;;;;;5006372;28;19917;-68
2022/05/05 14:06:16;;;;;;;;;;;;;;;;;;5028007;28;19932;-68
2022/05/05 14:14:11;;;;;;;;;;;;;;;;;;5028637;28;19924;-68
2022/05/05 14:16:38;;;;;;;;;;;;;;;;;;5025782;28;19921;-68
2022/05/05 14:19:04;;;;;;;;;;;;;;;;;;5029730;28;20374;-68
2022/05/05 14:21:30;;;;;;;;;;;;;;;;;;5015326;28;20031;-70
2022/05/05 14:23:56;;;;;;;;;;;;;;;;;;5009686;28;20592;-68
2022/05/05 14:26:22;;;;;;;;;;;;;;;;;;5032127;28;19920;-68
2022/05/05 14:28:48;;;;;;;;;;;;;;;;;;5010665;28;19916;-68
2022/05/05 14:31:15;;;;;;;;;;;;;;;;;;5012868;28;19948;-68
2022/05/05 14:33:40;;;;;;;;;;;;;;;;;;5038626;28;19952;-68
2022/05/05 14:36:07;;;;;;;;;;;;;;;;;;5025412;28;20035;-69
2022/05/05 14:38:35;;;;;;;;;;;;;;;;;;5034628;28;19913;-69
2022/05/05 14:41:01;;;;;;;;;;;;;;;;;;5019716;28;19916;-69
2022/05/05 14:43:27;;;;;;;;;;;;;;;;;;5043896;28;19923;-69
2022/05/05 14:45:53;;;;;;;;;;;;;;;;;;5043152;28;20853;-69
2022/05/05 14:48:20;;;;;;;;;;;;;;;;;;5018361;28;20192;-69
2022/05/05 14:50:46;;;;;;;;;;;;;;;;;;5027979;28;19916;-71
2022/05/05 14:53:12;;;;;;;;;;;;;;;;;;5027519;28;19936;-69
2022/05/05 14:55:38;;;;;;;;;;;;;;;;;;5017923;28;20016;-69
2022/05/05 14:58:04;;;;;;;;;;;;;;;;;;5020215;28;20038;-70
2022/05/05 15:00:30;;;;;;;;;;;;;;;;;;5031691;28;19916;-70
2022/05/05 15:02:56;;;;;;;;;;;;;;;;;;5016935;28;20021;-69
2022/05/05 15:05:22;;;;;;;;;;;;;;;;;;5033772;28;19920;-69
2022/05/05 15:07:48;;;;;;;;;;;;;;;;;;5011806;28;19925;-70
2022/05/05 15:10:14;;;;;;;;;;;;;;;;;;5036006;28;19916;-70
2022/05/05 15:12:41;;;;;;;;;;;;;;;;;;5009411;28;19921;-70
2022/05/05 15:15:07;;;;;;;;;;;;;;;;;;5032659;28;19920;-69
2022/05/05 15:17:33;;;;;;;;;;;;;;;;;;5035321;28;20229;-70
2022/05/05 15:19:59;;;;;;;;;;;;;;;;;;5013530;28;20031;-71
2022/05/05 15:22:25;;;;;;;;;;;;;;;;;;5029510;28;19927;-70
2022/05/05 15:25:09;;;;;;;;;;;;;;;;;;5026267;28;20236;-70
2022/05/05 15:27:35;;;;;;;;;;;;;;;;;;5029490;28;19934;-70
2022/05/05 15:30:01;;;;;;;;;;;;;;;;;;5012930;28;19917;-69
2022/05/05 15:32:30;;;;;;;;;;;;;;;;;;5030828;28;20348;-69
2022/05/05 15:34:56;;;;;;;;;;;;;;;;;;5025679;28;19982;-70
2022/05/05 15:37:22;;;;;;;;;;;;;;;;;;5014044;28;19917;-70
2022/05/05 15:39:51;;;;;;;;;;;;;;;;;;5030121;28;19923;-69
2022/05/05 15:42:17;;;;;;;;;;;;;;;;;;5014075;28;19916;-69
2022/05/05 15:44:43;;;;;;;;;;;;;;;;;;5007797;28;19939;-69
2022/05/05 15:47:09;;;;;;;;;;;;;;;;;;5015941;28;20193;-70
2022/05/05 15:49:36;;;;;;;;;;;;;;;;;;5026010;28;19998;-69
2022/05/05 15:52:02;;;;;;;;;;;;;;;;;;5016959;28;20007;-69
2022/05/05 15:54:28;;;;;;;;;;;;;;;;;;5014103;28;19952;-69
2022/05/05 15:56:56;;;;;;;;;;;;;;;;;;5033721;28;23269;-69
2022/05/05 15:59:22;;;;;;;;;;;;;;;;;;5036657;28;19982;-69
2022/05/05 16:01:48;;;;;;;;;;;;;;;;;;5028445;28;20385;-69
2022/05/05 16:04:14;;;;;;;;;;;;;;;;;;5032297;28;19916;-69
2022/05/05 16:06:40;;;;;;;;;;;;;;;;;;5028709;28;19929;-70
2022/05/05 16:09:06;;;;;;;;;;;;;;;;;;5032983;28;20353;-69
2022/05/05 16:11:35;;;;;;;;;;;;;;;;;;5035792;28;20252;-69
2022/05/05 16:14:02;;;;;;;;;;;;;;;;;;5015231;28;19917;-70
2022/05/05 16:16:27;;;;;;;;;;;;;;;;;;5035185;28;19920;-70
2022/05/05 16:18:54;;;;;;;;;;;;;;;;;;5013281;28;21826;-69
2022/05/05 16:21:20;;;;;;;;;;;;;;;;;;5018242;28;19923;-70
2022/05/05 16:23:47;;;;;;;;;;;;;;;;;;5028201;28;19925;-70
2022/05/05 16:31:42;;;;;;;;;;;;;;;;;;5027355;28;19920;-69
2022/05/05 16:34:08;;;;;;;;;;;;;;;;;;5036273;28;19917;-69
2022/05/05 16:36:37;;;;;;;;;;;;;;;;;;5019848;28;19917;-70
2022/05/05 16:39:03;;;;;;;;;;;;;;;;;;5022379;28;20398;-70
2022/05/05 16:41:29;;;;;;;;;;;;;;;;;;5022431;28;20584;-69
2022/05/05 16:43:55;;;;;;;;;;;;;;;;;;5028164;28;19948;-69
2022/05/05 16:46:21;;;;;;;;;;;;;;;;;;5026345;28;19921;-69
2022/05/05 16:48:47;;;;;;;;;;;;;;;;;;5028521;28;20488;-69
2022/05/05 16:51:14;;;;;;;;;;;;;;;;;;5034281;28;20263;-68
2022/05/05 16:53:42;;;;;;;;;;;;;;;;;;5016079;28;20002;-68
2022/05/05 16:56:08;;;;;;;;;;;;;;;;;;5029480;28;20035;-71
2022/05/05 16:58:34;;;;;;;;;;;;;;;;;;5035670;28;20442;-70
2022/05/05 17:01:01;;;;;;;;;;;;;;;;;;5014272;28;19966;-69
2022/05/05 17:03:27;;;;;;;;;;;;;;;;;;5015133;28;19916;-69
2022/05/05 17:05:53;;;;;;;;;;;;;;;;;;5026676;28;19953;-69
2022/05/05 17:08:22;;;;;;;;;;;;;;;;;;5012144;28;20247;-69
2022/05/05 17:10:48;;;;;;;;;;;;;;;;;;5034627;28;20337;-69
2022/05/05 17:13:14;;;;;;;;;;;;;;;;;;5032376;28;19947;-69
2022/05/05 17:15:40;;;;;;;;;;;;;;;;;;5032814;28;19953;-68
2022/05/05 17:18:06;;;;;;;;;;;;;;;;;;5032780;28;20627;-68
2022/05/05 17:20:32;;;;;;;;;;;;;;;;;;5013996;28;19917;-69
2022/05/05 17:22:58;;;;;;;;;;;;;;;;;;5012477;28;19917;-71
2022/05/05 17:25:25;;;;;;;;;;;;;;;;;;5031589;28;20486;-69
2022/05/05 17:27:52;;;;;;;;;;;;;;;;;;5011015;28;19946;-69
2022/05/05 17:30:18;;;;;;;;;;;;;;;;;;5029432;28;19946;-68
2022/05/05 17:32:44;;;;;;;;;;;;;;;;;;5035203;28;20181;-69
2022/05/05 17:35:10;;;;;;;;;;;;;;;;;;5021968;28;19921;-68
2022/05/05 17:37:37;;;;;;;;;;;;;;;;;;5000839;28;19924;-68
2022/05/05 17:40:02;;;;;;;;;;;;;;;;;;5007702;28;19916;-68
2022/05/05 17:42:28;;;;;;;;;;;;;;;;;;5019670;28;19917;-67
2022/05/05 17:50:30;;;;;;;;;;;;;;;;;;5018236;28;19923;-68